sensor_id;sensor_type;location;lat;lon;timestamp;temperature;humidity
16666;DHT22;8446;50.998;6.250;2023-07-13T00:00:09;14.30;97.50
16666;DHT22;8446;50.998;6.250;2023-07-13T00:02:36;14.30;97.30
16666;DHT22;8446;50.998;6.250;2023-07-13T00:05:03;14.20;97.60
16666;DHT22;8446;50.998;6.250;2023-07-13T00:07:31;14.30;97.70
16666;DHT22;8446;50.998;6.250;2023-07-13T00:09:58;14.20;97.60
16666;DHT22;8446;50.998;6.250;2023-07-13T00:12:28;14.20;97.90
16666;DHT22;8446;50.998;6.250;2023-07-13T00:14:56;14.30;97.60
16666;DHT22;8446;50.998;6.250;2023-07-13T00:17:23;14.40;97.20
16666;DHT22;8446;50.998;6.250;2023-07-13T00:19:50;14.30;97.40
16666;DHT22;8446;50.998;6.250;2023-07-13T00:22:17;14.20;97.70
16666;DHT22;8446;50.998;6.250;2023-07-13T00:24:45;14.30;97.70
16666;DHT22;8446;50.998;6.250;2023-07-13T00:27:12;14.10;97.90
16666;DHT22;8446;50.998;6.250;2023-07-13T00:29:39;14.10;98.10
16666;DHT22;8446;50.998;6.250;2023-07-13T00:32:08;14.20;97.60
16666;DHT22;8446;50.998;6.250;2023-07-13T00:34:37;14.20;98.00
16666;DHT22;8446;50.998;6.250;2023-07-13T00:37:04;14.20;97.60
16666;DHT22;8446;50.998;6.250;2023-07-13T00:39:33;14.00;98.30
16666;DHT22;8446;50.998;6.250;2023-07-13T00:42:02;14.00;98.40
16666;DHT22;8446;50.998;6.250;2023-07-13T00:44:30;14.00;98.40
16666;DHT22;8446;50.998;6.250;2023-07-13T00:46:57;13.80;98.80
16666;DHT22;8446;50.998;6.250;2023-07-13T00:49:26;14.00;98.60
16666;DHT22;8446;50.998;6.250;2023-07-13T00:52:02;14.00;98.50
16666;DHT22;8446;50.998;6.250;2023-07-13T00:54:32;13.90;98.80
16666;DHT22;8446;50.998;6.250;2023-07-13T00:57:04;13.90;98.70
16666;DHT22;8446;50.998;6.250;2023-07-13T00:59:34;14.00;98.50
16666;DHT22;8446;50.998;6.250;2023-07-13T01:02:01;14.10;98.40
16666;DHT22;8446;50.998;6.250;2023-07-13T01:04:28;14.20;98.20
16666;DHT22;8446;50.998;6.250;2023-07-13T01:06:56;14.20;98.20
16666;DHT22;8446;50.998;6.250;2023-07-13T01:09:23;14.20;98.40
16666;DHT22;8446;50.998;6.250;2023-07-13T01:11:50;14.10;98.70
16666;DHT22;8446;50.998;6.250;2023-07-13T01:14:18;13.90;99.00
16666;DHT22;8446;50.998;6.250;2023-07-13T01:16:46;13.90;99.40
16666;DHT22;8446;50.998;6.250;2023-07-13T01:19:21;13.80;99.50
16666;DHT22;8446;50.998;6.250;2023-07-13T01:21:53;13.80;99.30
16666;DHT22;8446;50.998;6.250;2023-07-13T01:24:19;13.70;99.60
16666;DHT22;8446;50.998;6.250;2023-07-13T01:26:46;13.70;99.60
16666;DHT22;8446;50.998;6.250;2023-07-13T01:29:13;14.00;99.20
16666;DHT22;8446;50.998;6.250;2023-07-13T01:31:40;13.80;99.40
16666;DHT22;8446;50.998;6.250;2023-07-13T01:34:07;13.70;99.70
16666;DHT22;8446;50.998;6.250;2023-07-13T01:36:33;13.70;99.70
16666;DHT22;8446;50.998;6.250;2023-07-13T01:39:03;13.60;99.80
16666;DHT22;8446;50.998;6.250;2023-07-13T01:41:30;14.00;98.90
16666;DHT22;8446;50.998;6.250;2023-07-13T01:43:57;13.80;99.30
16666;DHT22;8446;50.998;6.250;2023-07-13T01:46:23;13.80;99.60
16666;DHT22;8446;50.998;6.250;2023-07-13T01:48:51;13.80;99.70
16666;DHT22;8446;50.998;6.250;2023-07-13T01:51:19;13.60;99.80
16666;DHT22;8446;50.998;6.250;2023-07-13T01:53:45;13.60;99.80
16666;DHT22;8446;50.998;6.250;2023-07-13T01:56:14;13.80;99.10
16666;DHT22;8446;50.998;6.250;2023-07-13T01:58:40;13.60;99.80
16666;DHT22;8446;50.998;6.250;2023-07-13T02:01:07;13.60;99.60
16666;DHT22;8446;50.998;6.250;2023-07-13T02:03:34;13.60;99.50
16666;DHT22;8446;50.998;6.250;2023-07-13T02:06:01;13.60;99.70
16666;DHT22;8446;50.998;6.250;2023-07-13T02:08:28;13.70;99.40
16666;DHT22;8446;50.998;6.250;2023-07-13T02:10:55;13.80;99.20
16666;DHT22;8446;50.998;6.250;2023-07-13T02:13:23;14.00;99.00
16666;DHT22;8446;50.998;6.250;2023-07-13T02:15:50;13.70;99.60
16666;DHT22;8446;50.998;6.250;2023-07-13T02:18:17;13.70;99.60
16666;DHT22;8446;50.998;6.250;2023-07-13T02:20:44;13.60;99.80
16666;DHT22;8446;50.998;6.250;2023-07-13T02:23:11;13.40;99.90
16666;DHT22;8446;50.998;6.250;2023-07-13T02:25:38;13.40;99.90
16666;DHT22;8446;50.998;6.250;2023-07-13T02:28:05;13.30;99.90
16666;DHT22;8446;50.998;6.250;2023-07-13T02:30:34;13.20;99.90
16666;DHT22;8446;50.998;6.250;2023-07-13T02:33:01;13.20;99.90
16666;DHT22;8446;50.998;6.250;2023-07-13T02:35:28;13.10;99.90
16666;DHT22;8446;50.998;6.250;2023-07-13T02:37:54;13.10;99.90
16666;DHT22;8446;50.998;6.250;2023-07-13T02:40:21;13.00;99.90
16666;DHT22;8446;50.998;6.250;2023-07-13T02:42:48;12.90;99.90
16666;DHT22;8446;50.998;6.250;2023-07-13T02:45:15;12.70;99.90
16666;DHT22;8446;50.998;6.250;2023-07-13T02:47:43;12.90;99.90
16666;DHT22;8446;50.998;6.250;2023-07-13T02:50:10;12.80;99.90
16666;DHT22;8446;50.998;6.250;2023-07-13T02:52:37;12.90;99.90
16666;DHT22;8446;50.998;6.250;2023-07-13T02:55:04;13.10;99.90
16666;DHT22;8446;50.998;6.250;2023-07-13T02:57:31;13.10;99.90
16666;DHT22;8446;50.998;6.250;2023-07-13T02:59:58;13.20;99.90
16666;DHT22;8446;50.998;6.250;2023-07-13T03:02:25;13.30;99.90
16666;DHT22;8446;50.998;6.250;2023-07-13T03:04:54;13.20;99.90
16666;DHT22;8446;50.998;6.250;2023-07-13T03:07:21;13.10;99.90
16666;DHT22;8446;50.998;6.250;2023-07-13T03:09:48;13.10;99.90
16666;DHT22;8446;50.998;6.250;2023-07-13T03:12:15;13.00;99.90
16666;DHT22;8446;50.998;6.250;2023-07-13T03:14:42;13.00;99.90
16666;DHT22;8446;50.998;6.250;2023-07-13T03:17:08;12.90;99.90
16666;DHT22;8446;50.998;6.250;2023-07-13T03:19:35;12.80;99.90
16666;DHT22;8446;50.998;6.250;2023-07-13T03:22:04;12.80;99.90
16666;DHT22;8446;50.998;6.250;2023-07-13T03:24:32;12.80;99.90
16666;DHT22;8446;50.998;6.250;2023-07-13T03:27:01;13.00;99.90
16666;DHT22;8446;50.998;6.250;2023-07-13T03:29:28;13.10;99.90
16666;DHT22;8446;50.998;6.250;2023-07-13T03:31:54;13.30;99.90
16666;DHT22;8446;50.998;6.250;2023-07-13T03:34:21;13.40;99.90
16666;DHT22;8446;50.998;6.250;2023-07-13T03:36:48;13.50;99.90
16666;DHT22;8446;50.998;6.250;2023-07-13T03:39:16;13.60;99.90
16666;DHT22;8446;50.998;6.250;2023-07-13T03:41:43;13.50;99.90
16666;DHT22;8446;50.998;6.250;2023-07-13T03:44:10;13.40;99.90
16666;DHT22;8446;50.998;6.250;2023-07-13T03:46:37;13.50;99.90
16666;DHT22;8446;50.998;6.250;2023-07-13T03:49:04;13.50;99.90
16666;DHT22;8446;50.998;6.250;2023-07-13T03:51:31;13.40;99.90
16666;DHT22;8446;50.998;6.250;2023-07-13T03:53:58;13.50;99.90
16666;DHT22;8446;50.998;6.250;2023-07-13T03:56:26;13.40;99.90
16666;DHT22;8446;50.998;6.250;2023-07-13T03:58:53;13.50;99.90
16666;DHT22;8446;50.998;6.250;2023-07-13T04:01:22;13.30;99.90
16666;DHT22;8446;50.998;6.250;2023-07-13T04:03:50;13.30;99.90
16666;DHT22;8446;50.998;6.250;2023-07-13T04:06:19;13.40;99.90
16666;DHT22;8446;50.998;6.250;2023-07-13T04:08:48;13.20;99.90
16666;DHT22;8446;50.998;6.250;2023-07-13T04:11:16;13.20;99.90
16666;DHT22;8446;50.998;6.250;2023-07-13T04:13:45;13.40;99.90
16666;DHT22;8446;50.998;6.250;2023-07-13T04:16:12;13.40;99.90
16666;DHT22;8446;50.998;6.250;2023-07-13T04:18:39;13.60;99.90
16666;DHT22;8446;50.998;6.250;2023-07-13T04:21:07;13.70;99.90
16666;DHT22;8446;50.998;6.250;2023-07-13T04:23:34;13.80;99.90
16666;DHT22;8446;50.998;6.250;2023-07-13T04:26:01;13.90;99.90
16666;DHT22;8446;50.998;6.250;2023-07-13T04:28:28;13.90;99.90
16666;DHT22;8446;50.998;6.250;2023-07-13T04:30:57;13.90;99.90
16666;DHT22;8446;50.998;6.250;2023-07-13T04:33:24;13.90;99.90
16666;DHT22;8446;50.998;6.250;2023-07-13T04:35:52;13.90;99.90
16666;DHT22;8446;50.998;6.250;2023-07-13T04:38:20;14.00;99.90
16666;DHT22;8446;50.998;6.250;2023-07-13T04:40:47;14.00;99.90
16666;DHT22;8446;50.998;6.250;2023-07-13T04:43:14;14.10;99.90
16666;DHT22;8446;50.998;6.250;2023-07-13T04:45:41;14.10;99.90
16666;DHT22;8446;50.998;6.250;2023-07-13T04:48:09;14.20;99.90
16666;DHT22;8446;50.998;6.250;2023-07-13T04:50:36;14.20;99.90
16666;DHT22;8446;50.998;6.250;2023-07-13T04:53:03;14.30;99.90
16666;DHT22;8446;50.998;6.250;2023-07-13T04:55:31;14.50;99.70
16666;DHT22;8446;50.998;6.250;2023-07-13T04:57:58;14.50;99.80
16666;DHT22;8446;50.998;6.250;2023-07-13T05:00:25;14.50;99.90
16666;DHT22;8446;50.998;6.250;2023-07-13T05:02:53;14.60;99.50
16666;DHT22;8446;50.998;6.250;2023-07-13T05:05:21;14.60;99.90
16666;DHT22;8446;50.998;6.250;2023-07-13T05:07:48;14.70;99.90
16666;DHT22;8446;50.998;6.250;2023-07-13T05:10:15;14.80;99.80
16666;DHT22;8446;50.998;6.250;2023-07-13T05:12:42;14.90;99.10
16666;DHT22;8446;50.998;6.250;2023-07-13T05:15:10;15.00;99.50
16666;DHT22;8446;50.998;6.250;2023-07-13T05:17:37;15.00;99.80
16666;DHT22;8446;50.998;6.250;2023-07-13T05:20:05;15.00;99.60
16666;DHT22;8446;50.998;6.250;2023-07-13T05:22:33;15.00;99.60
16666;DHT22;8446;50.998;6.250;2023-07-13T05:25:01;15.00;99.60
16666;DHT22;8446;50.998;6.250;2023-07-13T05:27:28;15.00;99.80
16666;DHT22;8446;50.998;6.250;2023-07-13T05:29:55;15.10;99.90
16666;DHT22;8446;50.998;6.250;2023-07-13T05:32:21;15.10;99.50
16666;DHT22;8446;50.998;6.250;2023-07-13T05:34:48;15.20;99.50
16666;DHT22;8446;50.998;6.250;2023-07-13T05:37:15;15.20;99.70
16666;DHT22;8446;50.998;6.250;2023-07-13T05:39:43;15.20;99.50
16666;DHT22;8446;50.998;6.250;2023-07-13T05:42:10;15.20;99.60
16666;DHT22;8446;50.998;6.250;2023-07-13T05:44:37;15.20;99.50
16666;DHT22;8446;50.998;6.250;2023-07-13T05:47:04;15.20;99.60
16666;DHT22;8446;50.998;6.250;2023-07-13T05:49:31;15.30;99.40
16666;DHT22;8446;50.998;6.250;2023-07-13T05:51:58;15.30;99.70
16666;DHT22;8446;50.998;6.250;2023-07-13T05:54:25;15.50;99.40
16666;DHT22;8446;50.998;6.250;2023-07-13T05:56:53;15.60;99.20
16666;DHT22;8446;50.998;6.250;2023-07-13T05:59:20;15.80;99.40
16666;DHT22;8446;50.998;6.250;2023-07-13T06:01:47;15.80;99.10
16666;DHT22;8446;50.998;6.250;2023-07-13T06:04:14;16.00;98.40
16666;DHT22;8446;50.998;6.250;2023-07-13T06:06:40;16.20;98.50
16666;DHT22;8446;50.998;6.250;2023-07-13T06:09:07;16.30;98.70
16666;DHT22;8446;50.998;6.250;2023-07-13T06:11:34;16.50;98.40
16666;DHT22;8446;50.998;6.250;2023-07-13T06:14:02;16.30;98.20
16666;DHT22;8446;50.998;6.250;2023-07-13T06:16:30;16.30;98.80
16666;DHT22;8446;50.998;6.250;2023-07-13T06:18:56;16.20;98.50
16666;DHT22;8446;50.998;6.250;2023-07-13T06:21:24;16.20;98.70
16666;DHT22;8446;50.998;6.250;2023-07-13T06:23:51;16.10;98.80
16666;DHT22;8446;50.998;6.250;2023-07-13T06:26:19;16.00;98.70
16666;DHT22;8446;50.998;6.250;2023-07-13T06:28:46;16.10;98.80
16666;DHT22;8446;50.998;6.250;2023-07-13T06:31:15;16.20;98.60
16666;DHT22;8446;50.998;6.250;2023-07-13T06:33:41;16.20;98.40
16666;DHT22;8446;50.998;6.250;2023-07-13T06:36:09;16.20;98.90
16666;DHT22;8446;50.998;6.250;2023-07-13T06:38:36;16.20;98.90
16666;DHT22;8446;50.998;6.250;2023-07-13T06:41:04;16.10;99.00
16666;DHT22;8446;50.998;6.250;2023-07-13T06:43:31;16.20;99.40
16666;DHT22;8446;50.998;6.250;2023-07-13T06:45:58;16.20;99.30
16666;DHT22;8446;50.998;6.250;2023-07-13T06:48:26;16.30;99.70
16666;DHT22;8446;50.998;6.250;2023-07-13T06:50:53;16.30;99.10
16666;DHT22;8446;50.998;6.250;2023-07-13T06:53:21;16.20;99.30
16666;DHT22;8446;50.998;6.250;2023-07-13T06:55:48;16.30;99.30
16666;DHT22;8446;50.998;6.250;2023-07-13T06:58:16;16.20;99.20
16666;DHT22;8446;50.998;6.250;2023-07-13T07:00:44;16.40;99.80
16666;DHT22;8446;50.998;6.250;2023-07-13T07:03:10;16.40;99.60
16666;DHT22;8446;50.998;6.250;2023-07-13T07:05:39;16.40;99.00
16666;DHT22;8446;50.998;6.250;2023-07-13T07:08:06;16.40;99.10
16666;DHT22;8446;50.998;6.250;2023-07-13T07:10:33;16.30;99.60
16666;DHT22;8446;50.998;6.250;2023-07-13T07:13:01;16.30;99.80
16666;DHT22;8446;50.998;6.250;2023-07-13T07:15:28;16.20;99.30
16666;DHT22;8446;50.998;6.250;2023-07-13T07:17:55;16.30;99.40
16666;DHT22;8446;50.998;6.250;2023-07-13T07:20:22;16.30;99.90
16666;DHT22;8446;50.998;6.250;2023-07-13T07:22:50;16.30;99.80
16666;DHT22;8446;50.998;6.250;2023-07-13T07:25:17;16.30;99.70
16666;DHT22;8446;50.998;6.250;2023-07-13T07:27:44;16.40;99.90
16666;DHT22;8446;50.998;6.250;2023-07-13T07:30:12;16.40;99.90
16666;DHT22;8446;50.998;6.250;2023-07-13T07:32:39;16.40;99.50
16666;DHT22;8446;50.998;6.250;2023-07-13T07:35:07;16.50;99.70
16666;DHT22;8446;50.998;6.250;2023-07-13T07:37:34;16.50;99.80
16666;DHT22;8446;50.998;6.250;2023-07-13T07:40:02;16.50;99.90
16666;DHT22;8446;50.998;6.250;2023-07-13T07:42:29;16.70;99.80
16666;DHT22;8446;50.998;6.250;2023-07-13T07:44:56;16.70;99.10
16666;DHT22;8446;50.998;6.250;2023-07-13T07:47:23;16.70;99.90
16666;DHT22;8446;50.998;6.250;2023-07-13T07:49:50;16.70;99.70
16666;DHT22;8446;50.998;6.250;2023-07-13T07:52:18;16.80;99.30
16666;DHT22;8446;50.998;6.250;2023-07-13T07:54:44;16.80;99.40
16666;DHT22;8446;50.998;6.250;2023-07-13T07:57:13;16.90;99.30
16666;DHT22;8446;50.998;6.250;2023-07-13T07:59:39;16.90;98.70
16666;DHT22;8446;50.998;6.250;2023-07-13T08:02:09;17.00;98.80
16666;DHT22;8446;50.998;6.250;2023-07-13T08:04:36;17.00;98.50
16666;DHT22;8446;50.998;6.250;2023-07-13T08:07:03;17.00;98.60
16666;DHT22;8446;50.998;6.250;2023-07-13T08:09:30;17.10;98.10
16666;DHT22;8446;50.998;6.250;2023-07-13T08:11:57;17.00;98.90
16666;DHT22;8446;50.998;6.250;2023-07-13T08:14:25;17.10;98.60
16666;DHT22;8446;50.998;6.250;2023-07-13T08:16:52;17.20;97.70
16666;DHT22;8446;50.998;6.250;2023-07-13T08:19:19;17.30;98.10
16666;DHT22;8446;50.998;6.250;2023-07-13T08:21:46;17.40;97.50
16666;DHT22;8446;50.998;6.250;2023-07-13T08:24:14;17.40;97.20
16666;DHT22;8446;50.998;6.250;2023-07-13T08:26:41;17.40;97.20
16666;DHT22;8446;50.998;6.250;2023-07-13T08:29:07;17.70;98.10
16666;DHT22;8446;50.998;6.250;2023-07-13T08:31:36;17.90;97.60
16666;DHT22;8446;50.998;6.250;2023-07-13T08:34:03;17.80;97.40
16666;DHT22;8446;50.998;6.250;2023-07-13T08:36:29;17.60;97.20
16666;DHT22;8446;50.998;6.250;2023-07-13T08:38:56;17.60;96.60
16666;DHT22;8446;50.998;6.250;2023-07-13T08:41:23;17.70;97.60
16666;DHT22;8446;50.998;6.250;2023-07-13T08:43:54;17.80;96.60
16666;DHT22;8446;50.998;6.250;2023-07-13T08:46:26;17.90;96.90
16666;DHT22;8446;50.998;6.250;2023-07-13T08:48:58;18.00;97.80
16666;DHT22;8446;50.998;6.250;2023-07-13T08:51:41;17.90;97.40
16666;DHT22;8446;50.998;6.250;2023-07-13T08:54:16;18.00;97.80
16666;DHT22;8446;50.998;6.250;2023-07-13T08:56:45;18.20;97.10
16666;DHT22;8446;50.998;6.250;2023-07-13T08:59:14;18.10;96.50
16666;DHT22;8446;50.998;6.250;2023-07-13T09:02:08;17.90;96.10
16666;DHT22;8446;50.998;6.250;2023-07-13T09:04:48;18.00;96.00
16666;DHT22;8446;50.998;6.250;2023-07-13T09:07:23;18.00;96.50
16666;DHT22;8446;50.998;6.250;2023-07-13T09:10:02;18.40;96.40
16666;DHT22;8446;50.998;6.250;2023-07-13T09:12:36;18.60;95.40
16666;DHT22;8446;50.998;6.250;2023-07-13T09:15:20;18.50;96.10
16666;DHT22;8446;50.998;6.250;2023-07-13T09:17:50;18.70;94.90
16666;DHT22;8446;50.998;6.250;2023-07-13T09:20:23;18.50;95.90
16666;DHT22;8446;50.998;6.250;2023-07-13T09:22:52;18.60;95.60
16666;DHT22;8446;50.998;6.250;2023-07-13T09:25:24;18.90;95.00
16666;DHT22;8446;50.998;6.250;2023-07-13T09:27:55;18.80;95.50
16666;DHT22;8446;50.998;6.250;2023-07-13T09:30:30;19.00;95.20
16666;DHT22;8446;50.998;6.250;2023-07-13T09:32:58;19.10;95.00
16666;DHT22;8446;50.998;6.250;2023-07-13T09:35:28;19.00;95.40
16666;DHT22;8446;50.998;6.250;2023-07-13T09:37:59;19.10;95.20
16666;DHT22;8446;50.998;6.250;2023-07-13T09:40:34;19.60;94.70
16666;DHT22;8446;50.998;6.250;2023-07-13T09:43:04;19.50;94.60
16666;DHT22;8446;50.998;6.250;2023-07-13T09:45:33;19.80;94.20
16666;DHT22;8446;50.998;6.250;2023-07-13T09:48:05;19.60;94.10
16666;DHT22;8446;50.998;6.250;2023-07-13T09:50:34;19.90;94.00
16666;DHT22;8446;50.998;6.250;2023-07-13T09:53:01;19.90;93.10
16666;DHT22;8446;50.998;6.250;2023-07-13T09:55:30;19.50;93.20
16666;DHT22;8446;50.998;6.250;2023-07-13T09:58:02;19.10;93.90
16666;DHT22;8446;50.998;6.250;2023-07-13T10:00:31;19.70;93.40
16666;DHT22;8446;50.998;6.250;2023-07-13T10:03:02;20.20;92.30
16666;DHT22;8446;50.998;6.250;2023-07-13T10:05:39;20.10;92.00
16666;DHT22;8446;50.998;6.250;2023-07-13T10:08:16;20.10;93.60
16666;DHT22;8446;50.998;6.250;2023-07-13T10:10:45;20.30;92.90
16666;DHT22;8446;50.998;6.250;2023-07-13T10:13:33;20.80;93.00
16666;DHT22;8446;50.998;6.250;2023-07-13T10:16:02;20.70;92.00
16666;DHT22;8446;50.998;6.250;2023-07-13T10:18:36;20.60;92.80
16666;DHT22;8446;50.998;6.250;2023-07-13T10:21:17;20.60;92.60
16666;DHT22;8446;50.998;6.250;2023-07-13T10:23:48;20.40;91.50
16666;DHT22;8446;50.998;6.250;2023-07-13T10:26:19;20.70;92.10
16666;DHT22;8446;50.998;6.250;2023-07-13T10:28:52;20.40;91.70
16666;DHT22;8446;50.998;6.250;2023-07-13T10:31:21;20.00;91.90
16666;DHT22;8446;50.998;6.250;2023-07-13T10:33:49;20.30;92.10
16666;DHT22;8446;50.998;6.250;2023-07-13T10:36:27;20.50;90.90
16666;DHT22;8446;50.998;6.250;2023-07-13T10:38:56;20.10;90.50
16666;DHT22;8446;50.998;6.250;2023-07-13T10:41:26;21.00;91.30
16666;DHT22;8446;50.998;6.250;2023-07-13T10:43:55;20.70;90.70
16666;DHT22;8446;50.998;6.250;2023-07-13T10:46:25;21.00;89.00
16666;DHT22;8446;50.998;6.250;2023-07-13T10:48:56;20.70;90.40
16666;DHT22;8446;50.998;6.250;2023-07-13T10:51:26;20.50;90.70
16666;DHT22;8446;50.998;6.250;2023-07-13T10:54:22;20.50;91.10
16666;DHT22;8446;50.998;6.250;2023-07-13T10:57:06;20.50;90.60
16666;DHT22;8446;50.998;6.250;2023-07-13T10:59:35;21.10;89.50
16666;DHT22;8446;50.998;6.250;2023-07-13T11:02:11;21.10;90.00
16666;DHT22;8446;50.998;6.250;2023-07-13T11:04:43;21.10;88.40
16666;DHT22;8446;50.998;6.250;2023-07-13T11:07:20;20.60;90.90
16666;DHT22;8446;50.998;6.250;2023-07-13T11:09:50;21.10;91.60
16666;DHT22;8446;50.998;6.250;2023-07-13T11:12:52;21.10;89.30
16666;DHT22;8446;50.998;6.250;2023-07-13T11:15:43;20.90;90.20
16666;DHT22;8446;50.998;6.250;2023-07-13T11:18:21;20.90;90.40
16666;DHT22;8446;50.998;6.250;2023-07-13T11:20:48;20.70;88.10
16666;DHT22;8446;50.998;6.250;2023-07-13T11:23:26;20.80;90.40
16666;DHT22;8446;50.998;6.250;2023-07-13T11:25:53;20.80;88.30
16666;DHT22;8446;50.998;6.250;2023-07-13T11:28:25;20.80;88.20
16666;DHT22;8446;50.998;6.250;2023-07-13T11:31:03;21.70;89.00
16666;DHT22;8446;50.998;6.250;2023-07-13T11:33:53;21.70;86.40
16666;DHT22;8446;50.998;6.250;2023-07-13T11:36:24;21.90;87.10
16666;DHT22;8446;50.998;6.250;2023-07-13T11:39:02;21.30;87.20
16666;DHT22;8446;50.998;6.250;2023-07-13T11:41:31;21.50;88.90
16666;DHT22;8446;50.998;6.250;2023-07-13T11:44:06;22.30;85.70
16666;DHT22;8446;50.998;6.250;2023-07-13T11:46:33;22.30;82.80
16666;DHT22;8446;50.998;6.250;2023-07-13T11:48:59;22.20;81.60
16666;DHT22;8446;50.998;6.250;2023-07-13T11:51:29;22.50;79.70
16666;DHT22;8446;50.998;6.250;2023-07-13T11:54:03;22.20;82.50
16666;DHT22;8446;50.998;6.250;2023-07-13T11:56:30;22.00;85.70
16666;DHT22;8446;50.998;6.250;2023-07-13T11:59:02;22.00;85.50
16666;DHT22;8446;50.998;6.250;2023-07-13T12:01:31;21.70;84.50
16666;DHT22;8446;50.998;6.250;2023-07-13T12:03:59;22.00;85.30
16666;DHT22;8446;50.998;6.250;2023-07-13T12:06:30;22.00;83.20
16666;DHT22;8446;50.998;6.250;2023-07-13T12:08:58;22.70;83.10
16666;DHT22;8446;50.998;6.250;2023-07-13T12:11:27;22.20;83.20
16666;DHT22;8446;50.998;6.250;2023-07-13T12:13:54;22.00;85.20
16666;DHT22;8446;50.998;6.250;2023-07-13T12:16:27;22.10;82.50
16666;DHT22;8446;50.998;6.250;2023-07-13T12:18:55;22.10;83.40
16666;DHT22;8446;50.998;6.250;2023-07-13T12:21:31;22.00;83.00
16666;DHT22;8446;50.998;6.250;2023-07-13T12:23:59;21.60;85.10
16666;DHT22;8446;50.998;6.250;2023-07-13T12:26:29;22.40;81.80
16666;DHT22;8446;50.998;6.250;2023-07-13T12:28:59;22.80;81.40
16666;DHT22;8446;50.998;6.250;2023-07-13T12:31:32;21.60;83.50
16666;DHT22;8446;50.998;6.250;2023-07-13T12:34:02;21.80;84.80
16666;DHT22;8446;50.998;6.250;2023-07-13T12:36:34;22.50;84.20
16666;DHT22;8446;50.998;6.250;2023-07-13T12:39:10;22.50;79.70
16666;DHT22;8446;50.998;6.250;2023-07-13T12:41:40;22.40;82.10
16666;DHT22;8446;50.998;6.250;2023-07-13T12:44:13;22.40;81.30
16666;DHT22;8446;50.998;6.250;2023-07-13T12:46:54;22.30;82.00
16666;DHT22;8446;50.998;6.250;2023-07-13T12:49:28;22.40;80.80
16666;DHT22;8446;50.998;6.250;2023-07-13T12:52:00;22.60;78.30
16666;DHT22;8446;50.998;6.250;2023-07-13T12:54:30;22.40;78.30
16666;DHT22;8446;50.998;6.250;2023-07-13T12:56:59;22.40;76.90
16666;DHT22;8446;50.998;6.250;2023-07-13T12:59:31;22.50;78.90
16666;DHT22;8446;50.998;6.250;2023-07-13T13:02:02;22.60;79.20
16666;DHT22;8446;50.998;6.250;2023-07-13T13:04:39;23.10;80.70
16666;DHT22;8446;50.998;6.250;2023-07-13T13:07:09;22.80;79.60
16666;DHT22;8446;50.998;6.250;2023-07-13T13:09:36;23.00;80.50
16666;DHT22;8446;50.998;6.250;2023-07-13T13:12:05;22.70;77.70
16666;DHT22;8446;50.998;6.250;2023-07-13T13:14:32;22.60;78.20
16666;DHT22;8446;50.998;6.250;2023-07-13T13:17:02;22.70;78.00
16666;DHT22;8446;50.998;6.250;2023-07-13T13:19:29;22.40;80.50
16666;DHT22;8446;50.998;6.250;2023-07-13T13:21:57;22.50;81.00
16666;DHT22;8446;50.998;6.250;2023-07-13T13:24:27;22.80;78.80
16666;DHT22;8446;50.998;6.250;2023-07-13T13:26:54;22.40;80.00
16666;DHT22;8446;50.998;6.250;2023-07-13T13:29:24;22.40;80.30
16666;DHT22;8446;50.998;6.250;2023-07-13T13:31:52;22.70;80.10
16666;DHT22;8446;50.998;6.250;2023-07-13T13:34:20;22.70;79.90
16666;DHT22;8446;50.998;6.250;2023-07-13T13:36:49;23.20;79.30
16666;DHT22;8446;50.998;6.250;2023-07-13T13:39:21;23.50;76.20
16666;DHT22;8446;50.998;6.250;2023-07-13T13:41:49;23.20;78.60
16666;DHT22;8446;50.998;6.250;2023-07-13T13:44:17;23.20;79.30
16666;DHT22;8446;50.998;6.250;2023-07-13T13:46:47;22.60;77.80
16666;DHT22;8446;50.998;6.250;2023-07-13T13:49:16;22.50;81.00
16666;DHT22;8446;50.998;6.250;2023-07-13T13:51:44;22.20;79.00
16666;DHT22;8446;50.998;6.250;2023-07-13T13:54:12;22.60;80.90
16666;DHT22;8446;50.998;6.250;2023-07-13T13:56:41;22.70;80.90
16666;DHT22;8446;50.998;6.250;2023-07-13T13:59:08;22.60;80.00
16666;DHT22;8446;50.998;6.250;2023-07-13T14:01:36;22.60;78.00
16666;DHT22;8446;50.998;6.250;2023-07-13T14:04:04;22.50;78.70
16666;DHT22;8446;50.998;6.250;2023-07-13T14:06:32;22.50;77.90
16666;DHT22;8446;50.998;6.250;2023-07-13T14:08:59;22.50;77.70
16666;DHT22;8446;50.998;6.250;2023-07-13T14:11:28;22.80;78.20
16666;DHT22;8446;50.998;6.250;2023-07-13T14:13:59;22.90;77.40
16666;DHT22;8446;50.998;6.250;2023-07-13T14:16:28;22.80;76.10
16666;DHT22;8446;50.998;6.250;2023-07-13T14:18:56;22.50;73.60
16666;DHT22;8446;50.998;6.250;2023-07-13T14:21:28;22.30;77.10
16666;DHT22;8446;50.998;6.250;2023-07-13T14:23:55;22.00;78.70
16666;DHT22;8446;50.998;6.250;2023-07-13T14:26:23;21.90;77.80
16666;DHT22;8446;50.998;6.250;2023-07-13T14:28:53;21.90;78.40
16666;DHT22;8446;50.998;6.250;2023-07-13T14:31:22;21.80;77.50
16666;DHT22;8446;50.998;6.250;2023-07-13T14:33:49;21.60;78.30
16666;DHT22;8446;50.998;6.250;2023-07-13T14:36:26;21.60;77.10
16666;DHT22;8446;50.998;6.250;2023-07-13T14:38:54;21.60;77.60
16666;DHT22;8446;50.998;6.250;2023-07-13T14:41:22;21.50;77.80
16666;DHT22;8446;50.998;6.250;2023-07-13T14:43:49;21.40;76.50
16666;DHT22;8446;50.998;6.250;2023-07-13T14:46:27;21.50;77.20
16666;DHT22;8446;50.998;6.250;2023-07-13T14:49:03;21.00;83.50
16666;DHT22;8446;50.998;6.250;2023-07-13T14:51:33;20.50;86.90
16666;DHT22;8446;50.998;6.250;2023-07-13T14:54:02;20.50;88.50
16666;DHT22;8446;50.998;6.250;2023-07-13T14:56:29;20.40;88.60
16666;DHT22;8446;50.998;6.250;2023-07-13T14:58:56;20.50;87.80
16666;DHT22;8446;50.998;6.250;2023-07-13T15:01:23;20.40;88.70
16666;DHT22;8446;50.998;6.250;2023-07-13T15:03:51;20.20;88.90
16666;DHT22;8446;50.998;6.250;2023-07-13T15:06:19;20.00;89.80
16666;DHT22;8446;50.998;6.250;2023-07-13T15:08:47;20.00;89.90
16666;DHT22;8446;50.998;6.250;2023-07-13T15:11:16;19.80;89.30
16666;DHT22;8446;50.998;6.250;2023-07-13T15:13:43;19.90;90.40
16666;DHT22;8446;50.998;6.250;2023-07-13T15:16:15;19.60;90.20
16666;DHT22;8446;50.998;6.250;2023-07-13T15:18:44;19.40;90.60
16666;DHT22;8446;50.998;6.250;2023-07-13T15:21:13;19.30;91.00
16666;DHT22;8446;50.998;6.250;2023-07-13T15:23:41;19.40;91.10
16666;DHT22;8446;50.998;6.250;2023-07-13T15:26:12;19.40;91.20
16666;DHT22;8446;50.998;6.250;2023-07-13T15:28:40;19.20;91.10
16666;DHT22;8446;50.998;6.250;2023-07-13T15:31:19;19.20;91.10
16666;DHT22;8446;50.998;6.250;2023-07-13T15:33:47;19.10;91.30
16666;DHT22;8446;50.998;6.250;2023-07-13T15:36:15;19.20;91.80
16666;DHT22;8446;50.998;6.250;2023-07-13T15:38:42;19.20;91.40
16666;DHT22;8446;50.998;6.250;2023-07-13T15:41:19;19.30;91.30
16666;DHT22;8446;50.998;6.250;2023-07-13T15:43:48;19.40;91.30
16666;DHT22;8446;50.998;6.250;2023-07-13T15:46:17;19.10;91.10
16666;DHT22;8446;50.998;6.250;2023-07-13T15:48:45;19.10;91.20
16666;DHT22;8446;50.998;6.250;2023-07-13T15:51:18;19.00;91.40
16666;DHT22;8446;50.998;6.250;2023-07-13T15:53:46;19.00;91.10
16666;DHT22;8446;50.998;6.250;2023-07-13T15:56:20;19.00;91.30